Time;durP1;ratioP1;P1;durP2;ratioP2;P2;SDS_P1;SDS_P2;PMS_P1;PMS_P2;Temp;Humidity;BMP_temperature;BMP_pressure;BME280_temperature;BME280_humidity;BME280_pressure;Samples;Min_cycle;Max_cycle;Signal;HPM_P1;HPM_P2
2022/07/03 00:01:41;;;;;;;3.42;1.52;;;;;;;19.05;100.00;101694.72;10378728;28;20099;-61
2022/07/03 00:06:38;;;;;;;4.82;1.38;;;;;;;19.02;100.00;101689.88;10388020;28;20056;-66
2022/07/03 00:11:34;;;;;;;5.18;1.25;;;;;;;19.02;100.00;101685.13;10387165;28;20079;-64
2022/07/03 00:16:31;;;;;;;2.80;1.20;;;;;;;18.99;100.00;101691.38;10372492;28;20112;-63
2022/07/03 00:21:31;;;;;;;5.38;1.50;;;;;;;19.02;100.00;101679.59;10374128;28;20054;-63
2022/07/03 00:26:32;;;;;;;3.10;1.10;;;;;;;19.02;100.00;101679.59;10385624;28;20082;-62
2022/07/03 00:31:30;;;;;;;4.45;1.50;;;;;;;18.99;100.00;101674.75;10378276;28;20073;-64
2022/07/03 00:36:34;;;;;;;3.22;1.40;;;;;;;19.00;100.00;101665.28;10380332;28;20508;-63
2022/07/03 00:41:34;;;;;;;3.10;1.20;;;;;;;18.96;100.00;101672.72;10375866;28;20072;-63
2022/07/03 00:46:31;;;;;;;3.45;1.40;;;;;;;18.94;100.00;101666.72;10378078;28;20141;-63
2022/07/03 00:51:28;;;;;;;3.53;1.40;;;;;;;18.88;100.00;101659.78;10378332;28;20131;-63
2022/07/03 00:56:28;;;;;;;5.80;1.70;;;;;;;18.86;100.00;101654.59;10374054;28;20055;-63
2022/07/03 01:01:29;;;;;;;4.32;1.60;;;;;;;18.88;100.00;101645.94;10373795;28;20097;-63
2022/07/03 01:06:30;;;;;;;6.20;1.27;;;;;;;18.88;100.00;101634.84;10373655;27;20142;-64
2022/07/03 01:11:57;;;;;;;3.93;1.13;;;;;;;18.86;100.00;101626.09;10377508;28;20040;-63
2022/07/03 01:17:17;;;;;;;3.92;1.30;;;;;;;18.85;100.00;101625.28;10381366;28;20480;-62
2022/07/03 01:22:34;;;;;;;5.65;1.30;;;;;;;18.85;100.00;101628.06;10376061;28;20067;-62
2022/07/03 01:27:48;;;;;;;3.03;1.15;;;;;;;18.83;100.00;101621.25;10372295;28;20051;-61
2022/07/03 01:32:49;;;;;;;3.15;0.90;;;;;;;18.83;100.00;101605.44;10386480;28;20643;-62
2022/07/03 01:37:46;;;;;;;3.42;1.27;;;;;;;18.82;100.00;101597.47;10377218;28;20055;-61
2022/07/03 01:42:44;;;;;;;2.83;1.50;;;;;;;18.79;100.00;101592.63;10379794;28;20074;-61
2022/07/03 01:47:45;;;;;;;3.28;1.30;;;;;;;18.81;100.00;101596.66;10375029;28;20652;-62
2022/07/03 01:52:44;;;;;;;3.28;1.00;;;;;;;18.84;100.00;101578.53;10391728;28;20039;-61
2022/07/03 01:57:48;;;;;;;3.50;1.30;;;;;;;18.87;100.00;101575.06;10367902;28;20153;-65
2022/07/03 02:03:03;;;;;;;2.80;1.10;;;;;;;18.89;100.00;101564.41;10378613;28;20046;-64
2022/07/03 02:08:13;;;;;;;3.05;0.90;;;;;;;18.96;100.00;101564.63;10386261;28;20538;-64
2022/07/03 02:13:17;;;;;;;2.28;0.85;;;;;;;19.01;100.00;101567.13;10375717;28;20567;-62
2022/07/03 02:18:27;;;;;;;2.78;0.90;;;;;;;19.03;100.00;101569.53;10372818;28;20059;-62
2022/07/03 02:23:29;;;;;;;2.22;1.05;;;;;;;19.00;100.00;101559.16;10383539;28;20048;-61
2022/07/03 02:28:55;;;;;;;3.53;1.33;;;;;;;19.00;100.00;101564.72;10385819;28;20091;-64
2022/07/03 02:33:57;;;;;;;3.83;1.33;;;;;;;18.99;100.00;101558.38;10377590;28;20136;-63
2022/07/03 02:38:57;;;;;;;4.60;1.38;;;;;;;18.97;100.00;101559.88;10370523;28;20055;-63
2022/07/03 02:44:04;;;;;;;3.03;1.00;;;;;;;18.97;100.00;101555.16;10379645;28;20598;-63
2022/07/03 02:49:16;;;;;;;3.25;1.30;;;;;;;19.01;100.00;101558.81;10386514;28;20104;-62
2022/07/03 02:54:17;;;;;;;1.67;0.80;;;;;;;18.98;100.00;101556.75;10391786;28;20470;-62
2022/07/03 02:59:44;;;;;;;5.55;0.90;;;;;;;18.97;100.00;101555.16;10392436;28;20043;-62
2022/07/03 03:04:47;;;;;;;6.05;1.45;;;;;;;18.96;100.00;101553.56;10382332;28;20076;-63
2022/07/03 03:09:45;;;;;;;;;;;;;;;18.96;100.00;101545.22;10390533;27;20043;-64
2022/07/03 03:14:45;;;;;;;846.47;766.50;;;;;;;18.98;100.00;101545.66;10385136;28;19934;-64
2022/07/03 03:19:46;;;;;;;660.45;498.92;;;;;;;18.95;100.00;101546.38;10391275;28;20496;-62
2022/07/03 03:24:43;;;;;;;1240.00;802.63;;;;;;;18.95;100.00;101540.84;10388973;28;20031;-62
2022/07/03 03:29:40;;;;;;;789.22;713.58;;;;;;;18.96;100.00;101531.38;10384601;28;20503;-64
2022/07/03 03:34:40;;;;;;;1442.30;999.90;;;;;;;18.93;100.00;101534.84;10397020;27;20050;-64
2022/07/03 03:39:37;;;;;;;1022.90;864.95;;;;;;;18.91;100.00;101535.22;10380421;28;20135;-63
2022/07/03 03:44:34;;;;;;;759.33;688.40;;;;;;;18.85;100.00;101530.28;10373642;28;20113;-63
2022/07/03 03:49:30;;;;;;;712.38;660.95;;;;;;;18.84;100.00;101525.88;10385901;28;20043;-63
2022/07/03 03:54:27;;;;;;;782.33;712.35;;;;;;;18.78;100.00;101530.09;10372349;28;20068;-62
2022/07/03 03:59:23;;;;;;;732.78;666.92;;;;;;;18.76;100.00;101521.28;10374254;28;20036;-63
2022/07/03 04:04:22;;;;;;;1080.15;948.90;;;;;;;18.71;100.00;101520.38;10373465;28;20048;-63
2022/07/03 04:09:18;;;;;;;1260.72;932.95;;;;;;;18.65;100.00;101516.25;10382349;28;20039;-63
2022/07/03 04:14:15;;;;;;;529.53;486.83;;;;;;;18.63;100.00;101504.72;10362820;28;20043;-63
2022/07/03 04:19:11;;;;;;;791.45;718.90;;;;;;;18.48;100.00;101513.81;10377040;28;20448;-63
2022/07/03 04:24:08;;;;;;;1495.03;984.90;;;;;;;18.51;100.00;101515.84;10364660;28;20087;-62
2022/07/03 04:29:04;;;;;;;1104.15;919.20;;;;;;;18.49;100.00;101518.16;10375209;28;20135;-62
2022/07/03 04:34:01;;;;;;;1197.82;940.75;;;;;;;18.49;100.00;101512.63;10383676;28;20086;-63
2022/07/03 04:38:57;;;;;;;966.15;866.70;;;;;;;18.49;100.00;101523.72;10372142;28;20112;-63
2022/07/03 04:43:54;;;;;;;1074.25;956.20;;;;;;;18.51;100.00;101521.41;10358595;27;20122;-63
2022/07/03 04:48:50;;;;;;;948.15;846.85;;;;;;;18.50;100.00;101522.56;10371212;28;20069;-63
2022/07/03 04:53:47;;;;;;;1386.35;877.35;;;;;;;18.53;100.00;101524.63;10367484;28;20052;-63
2022/07/03 04:58:44;;;;;;;790.78;707.67;;;;;;;18.56;100.00;101518.38;10371026;28;20475;-62
2022/07/03 05:03:41;;;;;;;533.10;483.15;;;;;;;18.63;100.00;101523.31;10368817;28;20047;-62
2022/07/03 05:08:37;;;;;;;727.75;656.50;;;;;;;18.64;100.00;101525.72;10370315;28;20071;-62
2022/07/03 05:13:34;;;;;;;628.10;569.25;;;;;;;18.65;100.00;101560.56;10381136;28;20514;-62
2022/07/03 05:18:30;;;;;;;623.55;563.00;;;;;;;18.65;100.00;101527.31;10380279;28;20078;-63
2022/07/03 05:23:27;;;;;;;683.35;617.95;;;;;;;18.68;100.00;101547.97;10380675;28;20083;-63
2022/07/03 05:28:23;;;;;;;596.35;537.35;;;;;;;18.70;100.00;101546.50;10380097;28;20039;-63
2022/07/03 05:33:20;;;;;;;731.45;661.65;;;;;;;18.76;100.00;101532.38;10381888;28;20127;-63
2022/07/03 05:43:31;;;;;;;1853.97;999.90;;;;;;;18.77;100.00;101534.00;10387848;28;20173;-63
2022/07/03 05:48:28;;;;;;;1000.33;838.30;;;;;;;18.86;100.00;101537.41;10375933;28;20475;-63
2022/07/03 05:53:24;;;;;;;1984.95;999.90;;;;;;;18.95;100.00;101532.53;10355238;28;20071;-63
2022/07/03 05:58:21;;;;;;;1717.65;999.90;;;;;;;18.95;100.00;101535.28;10357337;28;20958;-63
2022/07/03 06:03:18;;;;;;;1500.13;999.90;;;;;;;19.06;100.00;101538.34;10370052;28;20082;-65
2022/07/03 06:08:14;;;;;;;1663.40;999.90;;;;;;;19.18;100.00;101531.94;10372450;28;20090;-64
2022/07/03 06:13:11;;;;;;;1663.13;999.90;;;;;;;19.25;100.00;101555.09;10380243;28;20039;-64
2022/07/03 06:18:07;;;;;;;1782.32;999.90;;;;;;;19.38;100.00;101541.13;10374120;28;20076;-65
2022/07/03 06:23:04;;;;;;;1686.07;999.90;;;;;;;19.47;100.00;101533.44;10372864;28;20148;-64
2022/07/03 06:28:04;;;;;;;1052.78;940.67;;;;;;;19.62;100.00;101534.59;10364956;28;20674;-64
2022/07/03 06:33:02;;;;;;;1070.20;960.38;;;;;;;19.72;100.00;101528.50;10364834;28;20063;-64
2022/07/03 06:38:03;;;;;;;1067.03;961.50;;;;;;;19.83;100.00;101529.56;10367735;28;20039;-64
2022/07/03 06:45:55;;;;;;;1430.30;999.38;;;;;;;19.92;100.00;101521.84;10166859;28;20638;-65
2022/07/03 06:50:51;;;;;;;1313.43;999.08;;;;;;;20.02;100.00;101530.78;10130989;28;20411;-65
2022/07/03 06:55:48;;;;;;;1257.10;997.78;;;;;;;20.14;100.00;101527.88;10164056;28;20046;-65
2022/07/03 07:00:44;;;;;;;1366.45;965.75;;;;;;;20.18;100.00;101529.56;10164870;28;20475;-66
2022/07/03 07:05:41;;;;;;;896.58;804.55;;;;;;;20.31;100.00;101529.44;10161229;28;20050;-65
2022/07/03 07:10:37;;;;;;;1021.88;915.10;;;;;;;20.41;100.00;101530.81;10157723;28;20042;-66
2022/07/03 07:15:34;;;;;;;1036.32;937.40;;;;;;;20.55;100.00;101525.56;10151037;28;20054;-66
2022/07/03 07:20:30;;;;;;;973.97;882.88;;;;;;;20.67;100.00;101528.19;10153037;28;20081;-66
2022/07/03 07:25:27;;;;;;;948.72;857.25;;;;;;;20.80;100.00;101524.09;10169111;28;20076;-66
2022/07/03 07:30:23;;;;;;;911.63;823.65;;;;;;;20.91;100.00;101532.63;10160148;28;20050;-66
2022/07/03 07:35:59;;;;;;;942.95;855.00;;;;;;;21.01;100.00;101525.66;10201608;27;20971;-66
2022/07/03 07:40:56;;;;;;;812.25;747.67;;;;;;;21.18;100.00;101527.94;10168166;28;20074;-71
2022/07/03 07:45:53;;;;;;;815.70;748.92;;;;;;;21.35;99.55;101525.81;10175736;28;20096;-71
2022/07/03 07:50:50;;;;;;;888.95;810.30;;;;;;;21.41;95.76;101529.94;10167521;28;20050;-71
2022/07/03 07:55:47;;;;;;;1144.47;927.85;;;;;;;21.58;92.70;101532.22;10211633;28;20049;-71
2022/07/03 08:05:58;;;;;;;945.20;855.65;;;;;;;21.89;89.19;101530.28;10179675;28;20048;-71
2022/07/03 08:10:55;;;;;;;984.15;890.03;;;;;;;22.04;88.95;101526.50;10182153;28;20709;-71
2022/07/03 08:15:52;;;;;;;1039.38;942.38;;;;;;;22.19;82.81;101521.16;10182190;28;20058;-72
2022/07/03 08:20:48;;;;;;;1054.30;954.30;;;;;;;22.31;86.99;101529.28;10183540;28;20089;-71
2022/07/03 08:25:45;;;;;;;1057.40;941.60;;;;;;;22.47;84.42;101527.09;10205746;28;20078;-71
2022/07/03 08:30:42;;;;;;;1097.03;961.78;;;;;;;22.68;79.30;101539.66;10214204;28;20049;-71
2022/07/03 08:35:38;;;;;;;1091.75;979.72;;;;;;;22.93;80.02;101539.94;10210935;28;20042;-71
2022/07/03 08:40:35;;;;;;;1448.78;999.90;;;;;;;23.21;73.01;101536.66;10214475;28;20050;-71
2022/07/03 08:45:33;;;;;;;1172.45;930.50;;;;;;;23.31;73.48;101530.34;10192434;28;20491;-71
2022/07/03 08:50:33;;;;;;;1293.28;969.78;;;;;;;23.46;80.99;101530.47;10181119;28;20058;-70
2022/07/03 08:55:29;;;;;;;1204.13;936.38;;;;;;;23.52;75.39;101523.34;10191622;28;20053;-71
2022/07/03 09:00:32;;;;;;;1050.57;862.03;;;;;;;23.63;70.60;101529.81;10183539;28;20418;-71
2022/07/03 09:05:28;;;;;;;1059.25;806.30;;;;;;;23.82;74.45;101536.34;10171243;28;20046;-71
2022/07/03 09:10:24;;;;;;;892.03;808.28;;;;;;;23.84;73.18;101550.72;10170043;28;20070;-72
2022/07/03 09:15:22;;;;;;;795.38;714.38;;;;;;;23.63;73.09;101538.19;10184134;28;20053;-72
2022/07/03 09:20:28;;;;;;;700.08;645.63;;;;;;;23.53;73.21;101541.66;10169715;28;20061;-71
2022/07/03 09:25:24;;;;;;;747.38;686.40;;;;;;;23.54;74.03;101548.88;10175788;28;20076;-72
2022/07/03 09:30:21;;;;;;;771.55;714.58;;;;;;;23.53;80.15;101553.66;10185212;28;20054;-71
2022/07/03 09:35:27;;;;;;;801.92;742.08;;;;;;;23.42;73.79;101549.19;10183640;28;20441;-71
2022/07/03 09:40:27;;;;;;;703.22;646.70;;;;;;;23.46;79.59;101547.19;10170299;28;20073;-71
2022/07/03 09:45:23;;;;;;;737.88;679.30;;;;;;;23.38;77.51;101551.13;10179862;28;20068;-71
2022/07/03 09:50:20;;;;;;;789.95;727.58;;;;;;;23.22;76.73;101554.97;10177910;28;20108;-71
2022/07/03 09:55:18;;;;;;;805.35;746.05;;;;;;;23.11;81.70;101551.28;10176522;28;20101;-71
2022/07/03 10:00:22;;;;;;;805.78;747.00;;;;;;;23.04;80.34;101554.00;10190087;28;20057;-71
2022/07/03 10:05:21;;;;;;;791.78;735.83;;;;;;;22.99;83.25;101549.56;10177806;28;20058;-71
2022/07/03 10:10:20;;;;;;;779.25;724.95;;;;;;;23.06;80.39;101557.22;10175330;28;20050;-72
2022/07/03 10:15:18;;;;;;;995.22;848.28;;;;;;;23.07;84.23;101547.69;10173586;28;20092;-71
2022/07/03 10:20:19;;;;;;;706.60;632.67;;;;;;;23.50;84.16;101559.19;10182961;28;20489;-71
2022/07/03 10:25:17;;;;;;;817.33;736.22;;;;;;;25.22;81.05;101553.66;10177759;28;20057;-71
2022/07/03 10:30:22;;;;;;;919.03;819.90;;;;;;;26.69;65.58;101548.56;10177381;28;20116;-71
2022/07/03 10:35:24;;;;;;;822.78;753.28;;;;;;;27.82;49.86;101531.22;10181032;28;20058;-72
2022/07/03 10:46:17;;;;;;;974.08;892.22;;;;;;;29.89;45.50;101546.38;10187800;28;20175;-73
2022/07/03 10:51:13;;;;;;;1457.72;999.85;;;;;;;30.47;43.17;101545.22;10175368;28;20042;-72
2022/07/03 10:56:10;;;;;;;1477.80;909.70;;;;;;;30.49;44.05;101537.91;10189152;28;20052;-72
2022/07/03 11:01:07;;;;;;;974.90;854.80;;;;;;;31.54;48.68;101531.44;10178267;28;20096;-72
2022/07/03 11:06:03;;;;;;;1999.90;999.90;;;;;;;31.85;41.62;101528.16;10184664;28;20116;-71
2022/07/03 11:11:54;;;;;;;1999.90;999.90;;;;;;;31.42;38.79;101529.31;10183597;28;20104;-72
2022/07/03 11:16:25;;;;;;;1999.90;999.90;;;;;;;30.28;37.88;101527.09;10183775;28;20099;-71
2022/07/03 11:21:36;;;;;;;1999.90;999.90;;;;;;;29.97;37.94;101528.09;10172947;28;20054;-71
2022/07/03 11:26:32;;;;;;;1999.90;999.90;;;;;;;30.62;40.57;101521.13;10181837;28;20053;-72
2022/07/03 11:31:29;;;;;;;1999.90;999.90;;;;;;;30.15;41.70;101518.50;10177162;28;20072;-72
2022/07/03 11:36:27;;;;;;;1999.90;999.90;;;;;;;29.42;39.75;101518.22;10185139;28;20076;-71
2022/07/03 11:41:25;;;;;;;1999.90;999.90;;;;;;;27.98;39.34;101521.47;10183799;28;20038;-72
2022/07/03 11:46:24;;;;;;;1999.90;999.90;;;;;;;28.70;40.32;101507.28;10179562;28;20074;-71
2022/07/03 11:51:21;;;;;;;1999.90;999.90;;;;;;;29.48;40.75;101510.88;10182281;28;20065;-72
2022/07/03 11:56:18;;;;;;;1999.90;999.90;;;;;;;29.76;40.82;101503.16;10172667;28;20125;-72
2022/07/03 12:01:26;;;;;;;1999.90;999.90;;;;;;;28.86;39.27;101509.47;10182285;28;20045;-71
2022/07/03 12:06:22;;;;;;;1999.90;999.90;;;;;;;28.25;41.14;101511.09;10181300;28;20483;-72
2022/07/03 12:11:19;;;;;;;1999.90;999.90;;;;;;;28.20;41.76;101508.75;10178074;28;20054;-71
2022/07/03 12:16:15;;;;;;;1999.90;999.90;;;;;;;28.61;40.43;101505.00;10166676;28;20078;-71
2022/07/03 12:21:13;;;;;;;1999.90;999.90;;;;;;;29.04;41.01;101504.34;10185204;28;20054;-71
2022/07/03 12:26:10;;;;;;;1999.90;999.90;;;;;;;28.10;40.79;101504.03;10184733;28;20041;-71
2022/07/03 12:31:07;;;;;;;1999.90;999.90;;;;;;;27.64;42.72;101494.09;10186927;28;20107;-71
2022/07/03 12:36:03;;;;;;;1999.90;999.90;;;;;;;27.48;44.22;101503.09;10179119;28;20077;-71
2022/07/03 12:41:08;;;;;;;1999.90;999.90;;;;;;;27.08;46.31;101511.84;10187016;28;20522;-71
2022/07/03 12:46:23;;;;;;;1999.90;999.90;;;;;;;26.73;48.79;101504.44;10191777;28;20069;-71
2022/07/03 12:51:40;;;;;;;1999.90;999.90;;;;;;;26.40;47.13;101503.03;10180355;28;20138;-71
2022/07/03 12:56:37;;;;;;;1999.90;999.90;;;;;;;26.32;49.00;101498.63;10176054;28;20144;-71
2022/07/03 13:01:36;;;;;;;1999.90;999.90;;;;;;;26.23;50.06;101494.28;10185334;28;20569;-71
2022/07/03 13:06:33;;;;;;;1999.90;999.90;;;;;;;26.09;53.65;101494.34;10178550;28;20530;-72
2022/07/03 13:11:29;;;;;;;1999.90;999.90;;;;;;;26.26;55.90;101491.88;10189467;28;20054;-71
2022/07/03 13:16:27;;;;;;;1999.90;999.90;;;;;;;27.39;56.37;101478.31;10167028;28;20046;-72
2022/07/03 13:21:23;;;;;;;1999.90;999.90;;;;;;;28.00;54.39;101460.00;10176356;28;20127;-70
2022/07/03 13:26:20;;;;;;;1999.90;999.90;;;;;;;27.87;48.91;101463.38;10184386;28;20481;-71
2022/07/03 13:31:16;;;;;;;1999.90;999.90;;;;;;;27.63;43.98;101464.44;10183713;28;20073;-71
2022/07/03 13:36:13;;;;;;;1999.90;999.90;;;;;;;27.44;45.48;101463.81;10174716;28;20564;-72
2022/07/03 13:41:10;;;;;;;1999.90;999.90;;;;;;;27.33;46.97;101463.13;10179223;28;20046;-71
2022/07/03 13:46:06;;;;;;;1999.90;999.90;;;;;;;27.29;47.57;101445.50;10179190;28;20046;-70
2022/07/03 13:51:03;;;;;;;1999.90;999.90;;;;;;;26.95;46.68;101465.84;10181944;28;20092;-71
2022/07/03 13:56:00;;;;;;;1999.90;999.90;;;;;;;27.10;47.29;101448.88;10175832;28;20045;-71
2022/07/03 14:00:56;;;;;;;1999.90;999.90;;;;;;;27.12;46.29;101446.44;10179103;28;20049;-71
2022/07/03 14:05:53;;;;;;;1999.90;999.90;;;;;;;27.28;44.61;101443.91;10173469;28;20478;-71
2022/07/03 14:10:49;;;;;;;1999.90;999.90;;;;;;;27.42;49.81;101437.38;10174433;28;20080;-72
2022/07/03 14:15:46;;;;;;;1999.90;999.90;;;;;;;27.22;39.46;101434.34;10183477;28;20525;-71
2022/07/03 14:20:42;;;;;;;1999.90;999.90;;;;;;;27.20;37.82;101431.16;10176217;28;20115;-72
2022/07/03 14:25:39;;;;;;;1999.90;999.90;;;;;;;27.59;40.56;101418.72;10182112;28;20068;-72
2022/07/03 14:35:51;;;;;;;1999.90;999.90;;;;;;;27.96;38.15;101414.28;10185469;28;20057;-72
2022/07/03 14:40:47;;;;;;;1999.90;999.90;;;;;;;28.06;37.98;101413.38;10177325;28;20046;-71
2022/07/03 14:45:44;;;;;;;1999.90;999.90;;;;;;;27.87;35.77;101412.81;10188364;28;20077;-71
2022/07/03 14:50:40;;;;;;;1999.90;999.90;;;;;;;27.83;35.14;101412.03;10179128;28;20065;-71
2022/07/03 14:55:39;;;;;;;1999.90;999.90;;;;;;;28.18;35.50;101404.34;10178863;28;20081;-72
2022/07/03 15:00:40;;;;;;;1999.90;999.90;;;;;;;28.42;36.12;101399.56;10184095;28;20096;-72
2022/07/03 15:05:41;;;;;;;1999.90;999.90;;;;;;;27.83;35.56;101400.81;10185658;28;20042;-71
2022/07/03 15:10:38;;;;;;;1999.90;999.90;;;;;;;27.47;36.44;101398.38;10185072;28;20046;-71
2022/07/03 15:15:39;;;;;;;1999.90;999.90;;;;;;;27.26;37.49;101398.63;10173943;28;20105;-71
2022/07/03 15:20:37;;;;;;;1999.90;999.90;;;;;;;27.64;37.75;101388.16;10180825;28;20049;-72
2022/07/03 15:25:37;;;;;;;1999.90;999.90;;;;;;;27.30;37.59;101385.34;10171897;28;20085;-72
2022/07/03 15:30:33;;;;;;;1999.90;999.90;;;;;;;27.07;38.44;101383.94;10176490;28;20115;-72
2022/07/03 15:35:31;;;;;;;1999.90;999.90;;;;;;;26.99;38.70;101381.59;10177577;28;20046;-72
2022/07/03 15:40:40;;;;;;;1999.90;999.90;;;;;;;26.72;38.80;101389.88;10181729;28;20046;-70
2022/07/03 15:45:56;;;;;;;1999.90;999.90;;;;;;;26.49;39.70;101410.84;10180133;28;20625;-71
2022/07/03 15:51:01;;;;;;;1999.90;999.90;;;;;;;25.67;53.63;101417.66;10166809;28;20481;-71
2022/07/03 15:56:04;;;;;;;1999.90;999.90;;;;;;;24.89;71.26;101458.47;10187606;28;20077;-71
2022/07/03 16:06:20;;;;;;;1999.90;999.90;;;;;;;24.19;81.48;101446.75;10188157;28;19925;-71
2022/07/03 16:11:17;;;;;;;1999.90;999.90;;;;;;;23.98;82.41;101447.47;10193168;28;20038;-69
2022/07/03 16:16:14;;;;;;;1207.55;585.65;;;;;;;23.54;85.42;101459.56;10195379;28;20134;-72
2022/07/03 16:21:10;;;;;;;1463.15;575.67;;;;;;;24.42;79.58;101462.38;10186254;28;20065;-71
2022/07/03 16:26:08;;;;;;;1999.90;999.90;;;;;;;25.40;71.74;101474.09;10186518;28;20046;-71
2022/07/03 16:31:07;;;;;;;1686.03;859.60;;;;;;;25.67;68.93;101470.84;10184008;28;20108;-71
2022/07/03 16:36:11;;;;;;;1675.55;844.05;;;;;;;24.62;76.41;101465.63;10181057;28;20046;-71
2022/07/03 16:41:10;;;;;;;1124.53;650.85;;;;;;;23.95;84.53;101462.22;10182616;28;20112;-70
2022/07/03 16:46:12;;;;;;;1052.80;678.97;;;;;;;23.87;87.45;101460.56;10180278;28;20556;-70
2022/07/03 16:51:12;;;;;;;1575.23;876.97;;;;;;;24.30;87.34;101460.75;10179813;28;20073;-70
2022/07/03 16:56:11;;;;;;;1851.95;899.75;;;;;;;24.59;83.67;101460.84;10177350;28;20049;-71
2022/07/03 17:01:09;;;;;;;943.50;841.50;;;;;;;24.27;86.93;101456.72;10175115;28;20048;-70
2022/07/03 17:06:07;;;;;;;1441.88;848.92;;;;;;;24.30;88.63;101461.56;10177795;28;20042;-70
2022/07/03 17:11:03;;;;;;;1166.60;889.95;;;;;;;25.13;86.16;101470.06;10174683;28;20054;-69
2022/07/03 17:16:02;;;;;;;1413.55;965.35;;;;;;;25.05;83.73;101477.69;10177334;28;20065;-69
2022/07/03 17:21:04;;;;;;;1534.18;945.20;;;;;;;24.63;85.41;101478.44;10189075;28;20052;-70
2022/07/03 17:26:07;;;;;;;1999.90;999.90;;;;;;;24.41;86.32;101474.75;10182660;28;20077;-70
2022/07/03 17:31:14;;;;;;;1999.90;999.90;;;;;;;24.15;89.35;101477.44;10180635;28;20042;-69
2022/07/03 17:36:18;;;;;;;1999.90;999.90;;;;;;;24.17;89.09;101473.47;10172744;28;20053;-70
2022/07/03 17:41:17;;;;;;;1999.90;999.90;;;;;;;24.78;85.31;101499.63;10175799;28;20053;-70
2022/07/03 17:46:14;;;;;;;1999.90;999.90;;;;;;;24.68;86.18;101508.78;10173397;28;20116;-70
2022/07/03 17:51:14;;;;;;;1999.90;999.90;;;;;;;24.43;89.06;101509.47;10178263;28;20073;-71
2022/07/03 17:56:13;;;;;;;1999.90;999.90;;;;;;;24.28;89.49;101513.44;10175377;28;20046;-71
2022/07/03 18:01:13;;;;;;;1999.90;999.90;;;;;;;23.97;92.48;101493.31;10176280;28;20077;-70
2022/07/03 18:06:25;;;;;;;1999.90;999.90;;;;;;;23.50;95.65;101503.38;10187891;28;20076;-70
2022/07/03 18:11:33;;;;;;;1999.90;999.90;;;;;;;23.14;100.00;101510.66;10178960;28;20461;-71
2022/07/03 18:16:35;;;;;;;1999.90;999.90;;;;;;;22.84;100.00;101512.38;10182839;28;20617;-70
2022/07/03 18:21:33;;;;;;;1999.90;999.90;;;;;;;22.63;100.00;101507.38;10181587;28;20049;-69
2022/07/03 18:26:45;;;;;;;1045.30;574.35;;;;;;;22.44;100.00;101511.13;10182021;28;20070;-69
2022/07/03 18:31:46;;;;;;;888.20;782.08;;;;;;;22.38;100.00;101507.06;10184714;28;20129;-70
2022/07/03 18:36:44;;;;;;;937.45;855.05;;;;;;;22.34;100.00;101517.38;10171327;28;20070;-70
2022/07/03 18:41:43;;;;;;;605.72;539.88;;;;;;;22.16;100.00;101569.22;10176242;28;20473;-70
2022/07/03 18:46:40;;;;;;;489.70;443.23;;;;;;;21.87;100.00;101571.59;10180472;28;20542;-71
2022/07/03 18:52:03;;;;;;;1999.90;999.90;;;;;;;21.70;100.00;101583.25;10174852;28;20460;-70
2022/07/03 18:57:02;;;;;;;;;;;;;;;21.37;100.00;101609.69;10179482;28;20496;-71
2022/07/03 19:02:00;;;;;;;36.10;34.08;;;;;;;20.98;100.00;101593.13;10175896;28;19968;-70
2022/07/03 19:07:09;;;;;;;36.90;34.80;;;;;;;20.92;100.00;101583.47;10179364;28;20169;-71
2022/07/03 19:12:14;;;;;;;31.40;29.52;;;;;;;20.95;100.00;101554.91;10179023;28;20034;-70
2022/07/03 19:17:12;;;;;;;18.77;17.48;;;;;;;20.90;100.00;101564.38;10184973;28;20126;-70
2022/07/03 19:22:10;;;;;;;36.70;34.58;;;;;;;20.77;100.00;101560.97;10179473;28;20041;-70
2022/07/03 19:27:07;;;;;;;24.50;23.00;;;;;;;20.81;100.00;101561.00;10188412;28;20107;-70
2022/07/03 19:32:04;;;;;;;22.52;21.05;;;;;;;20.67;100.00;101567.09;10187760;28;20070;-70
2022/07/03 19:37:06;;;;;;;69.05;64.03;;;;;;;20.49;100.00;101590.91;10180924;28;20062;-70
2022/07/03 19:42:02;;;;;;;796.17;669.92;;;;;;;20.48;100.00;101586.53;10184635;28;20073;-70
2022/07/03 19:46:59;;;;;;;1016.72;813.67;;;;;;;20.16;100.00;101608.81;10181718;28;20038;-70
2022/07/03 19:52:15;;;;;;;85.95;79.90;;;;;;;20.22;100.00;101618.50;10181540;28;20586;-70
2022/07/03 19:57:12;;;;;;;785.63;732.42;;;;;;;20.21;100.00;101608.53;10185651;28;20459;-68
2022/07/03 20:02:09;;;;;;;799.83;745.65;;;;;;;20.27;100.00;101606.31;10184428;28;20042;-68
2022/07/03 20:07:07;;;;;;;799.38;744.42;;;;;;;20.21;100.00;101604.97;10188243;28;20049;-60
2022/07/03 20:12:03;;;;;;;825.22;766.33;;;;;;;20.19;100.00;101605.34;10190556;28;20070;-63
2022/07/03 20:17:00;;;;;;;712.75;665.53;;;;;;;20.07;100.00;101603.47;10176940;28;20140;-63
2022/07/03 20:21:57;;;;;;;668.35;620.58;;;;;;;20.01;100.00;101606.91;10183350;28;20050;-61
2022/07/03 20:26:55;;;;;;;1999.90;863.05;;;;;;;19.88;100.00;101598.66;10161893;28;20575;-65
2022/07/03 20:31:52;;;;;;;1999.90;999.90;;;;;;;19.82;100.00;101608.44;10143722;28;20533;-63
2022/07/03 20:36:49;;;;;;;1999.90;989.88;;;;;;;19.77;100.00;101614.25;10145882;28;20073;-62
2022/07/03 20:41:45;;;;;;;1741.40;999.90;;;;;;;19.76;100.00;101629.28;10138897;28;20050;-63
2022/07/03 20:46:42;;;;;;;856.97;735.42;;;;;;;19.67;100.00;101634.19;10141330;28;20085;-62
2022/07/03 20:51:39;;;;;;;974.35;258.05;;;;;;;19.71;100.00;101646.22;10145534;28;20650;-62
2022/07/03 20:56:35;;;;;;;1207.50;944.22;;;;;;;19.74;100.00;101634.41;10137459;28;20102;-62
2022/07/03 21:01:34;;;;;;;1999.90;999.90;;;;;;;19.74;100.00;101631.63;10138513;28;20082;-63
2022/07/03 21:06:31;;;;;;;1999.90;999.90;;;;;;;19.70;100.00;101636.25;10136599;28;20125;-63
2022/07/03 21:11:34;;;;;;;1999.90;999.90;;;;;;;19.67;100.00;101631.41;10133456;28;20295;-64
2022/07/03 21:16:31;;;;;;;1999.90;999.90;;;;;;;19.62;100.00;101629.72;10139899;28;20061;-60
2022/07/03 21:21:28;;;;;;;1999.90;999.90;;;;;;;19.50;100.00;101627.81;10137771;28;20076;-60
2022/07/03 21:26:25;;;;;;;1999.90;999.90;;;;;;;19.39;100.00;101648.94;10141597;28;20135;-60
2022/07/03 21:31:23;;;;;;;1999.90;734.63;;;;;;;19.24;100.00;101652.47;10147424;28;20074;-61
2022/07/03 21:36:20;;;;;;;1999.90;999.90;;;;;;;19.07;100.00;101659.13;10141771;28;20078;-61
2022/07/03 21:41:18;;;;;;;1999.90;999.90;;;;;;;18.95;100.00;101646.13;10139167;28;20508;-61
2022/07/03 21:46:15;;;;;;;1999.90;999.90;;;;;;;18.86;100.00;101654.59;10135508;28;20138;-61
2022/07/03 21:51:11;;;;;;;1999.90;999.90;;;;;;;18.76;100.00;101663.38;10139995;28;20415;-61
2022/07/03 21:56:08;;;;;;;1999.90;999.90;;;;;;;18.66;100.00;101667.44;10135328;28;20093;-61
2022/07/03 22:01:04;;;;;;;1999.90;999.90;;;;;;;18.45;100.00;101672.31;10146102;28;20066;-61
2022/07/03 22:06:02;;;;;;;1999.90;999.90;;;;;;;18.51;100.00;101674.50;10147286;28;20042;-60
2022/07/03 22:10:58;;;;;;;1999.90;999.90;;;;;;;18.40;100.00;101675.31;10164131;28;20069;-60
2022/07/03 22:15:55;;;;;;;1999.90;999.90;;;;;;;18.34;100.00;101672.00;10138270;28;20085;-60
2022/07/03 22:20:51;;;;;;;1999.90;999.90;;;;;;;18.23;100.00;101674.41;10140133;28;20039;-62